Time;durP1;ratioP1;P1;durP2;ratioP2;P2;SDS_P1;SDS_P2;PMS_P1;PMS_P2;Temp;Humidity;BMP_temperature;BMP_pressure;BME280_temperature;BME280_humidity;BME280_pressure;Samples;Min_cycle;Max_cycle;Signal;HPM_P1;HPM_P2
2023/02/17 00:00:02;;;;;;;;;;;;;;;;;;5136493;27;19947;-68
2023/02/17 00:02:28;;;;;;;;;;;;;;;;;;5136661;27;19959;-68
2023/02/17 00:04:54;;;;;;;;;;;;;;;;;;5136319;27;20330;-68
2023/02/17 00:07:20;;;;;;;;;;;;;;;;;;5136927;27;19958;-67
2023/02/17 00:09:46;;;;;;;;;;;;;;;;;;5136133;27;19988;-67
2023/02/17 00:12:12;;;;;;;;;;;;;;;;;;5136874;27;20339;-67
2023/02/17 00:14:38;;;;;;;;;;;;;;;;;;5136105;27;19956;-68
2023/02/17 00:17:04;;;;;;;;;;;;;;;;;;5136193;27;20002;-68
2023/02/17 00:19:29;;;;;;;;;;;;;;;;;;5136057;27;20290;-68
2023/02/17 00:21:55;;;;;;;;;;;;;;;;;;5136026;27;19962;-68
2023/02/17 00:24:21;;;;;;;;;;;;;;;;;;5136300;27;19954;-68
2023/02/17 00:26:47;;;;;;;;;;;;;;;;;;5135970;27;19950;-68
2023/02/17 00:29:13;;;;;;;;;;;;;;;;;;5136195;27;19954;-68
2023/02/17 00:31:39;;;;;;;;;;;;;;;;;;5136107;27;20329;-68
2023/02/17 00:34:05;;;;;;;;;;;;;;;;;;5136646;27;19949;-67
2023/02/17 00:36:31;;;;;;;;;;;;;;;;;;5135731;27;19953;-68
2023/02/17 00:38:57;;;;;;;;;;;;;;;;;;5136013;27;19944;-69
2023/02/17 00:41:22;;;;;;;;;;;;;;;;;;5135872;27;20369;-68
2023/02/17 00:43:48;;;;;;;;;;;;;;;;;;5135391;27;19985;-68
2023/02/17 00:46:14;;;;;;;;;;;;;;;;;;5135576;27;20042;-68
2023/02/17 00:48:40;;;;;;;;;;;;;;;;;;5135879;27;19971;-68
2023/02/17 00:51:06;;;;;;;;;;;;;;;;;;5135499;27;20513;-68
2023/02/17 00:53:32;;;;;;;;;;;;;;;;;;5135438;27;20056;-68
2023/02/17 00:55:58;;;;;;;;;;;;;;;;;;5135713;27;19998;-68
2023/02/17 00:58:24;;;;;;;;;;;;;;;;;;5135654;27;20385;-68
2023/02/17 01:00:50;;;;;;;;;;;;;;;;;;5135530;27;19946;-67
2023/02/17 01:03:16;;;;;;;;;;;;;;;;;;5135498;27;19967;-68
2023/02/17 01:05:41;;;;;;;;;;;;;;;;;;5135835;27;19994;-68
2023/02/17 01:08:07;;;;;;;;;;;;;;;;;;5135237;27;19993;-68
2023/02/17 01:10:33;;;;;;;;;;;;;;;;;;5134984;27;19985;-68
2023/02/17 01:12:59;;;;;;;;;;;;;;;;;;5135016;27;19948;-68
2023/02/17 01:15:25;;;;;;;;;;;;;;;;;;5135395;27;19949;-68
2023/02/17 01:17:51;;;;;;;;;;;;;;;;;;5135342;27;19947;-68
2023/02/17 01:20:17;;;;;;;;;;;;;;;;;;5135009;27;20319;-68
2023/02/17 01:22:43;;;;;;;;;;;;;;;;;;5135465;27;19969;-68
2023/02/17 01:25:09;;;;;;;;;;;;;;;;;;5134920;27;19949;-68
2023/02/17 01:27:36;;;;;;;;;;;;;;;;;;5135106;27;20317;-68
2023/02/17 01:30:02;;;;;;;;;;;;;;;;;;5135260;27;19948;-68
2023/02/17 01:32:28;;;;;;;;;;;;;;;;;;5135096;27;20015;-68
2023/02/17 01:34:53;;;;;;;;;;;;;;;;;;5135356;27;20002;-69
2023/02/17 01:37:19;;;;;;;;;;;;;;;;;;5134775;27;20405;-68
2023/02/17 01:39:45;;;;;;;;;;;;;;;;;;5134783;27;19947;-68
2023/02/17 01:42:11;;;;;;;;;;;;;;;;;;5116068;27;20368;-68
2023/02/17 01:44:37;;;;;;;;;;;;;;;;;;5134686;28;19957;-68
2023/02/17 01:47:03;;;;;;;;;;;;;;;;;;5134949;28;20048;-68
2023/02/17 01:49:29;;;;;;;;;;;;;;;;;;5134925;28;19950;-68
2023/02/17 01:51:55;;;;;;;;;;;;;;;;;;5135258;28;19959;-67
2023/02/17 01:54:21;;;;;;;;;;;;;;;;;;5135502;27;20325;-68
2023/02/17 01:56:47;;;;;;;;;;;;;;;;;;5139184;27;19945;-68
2023/02/17 01:59:13;;;;;;;;;;;;;;;;;;5139477;27;20086;-68
2023/02/17 02:01:38;;;;;;;;;;;;;;;;;;5120037;27;19951;-68
2023/02/17 02:04:04;;;;;;;;;;;;;;;;;;5139317;27;19954;-67
2023/02/17 02:06:30;;;;;;;;;;;;;;;;;;5138997;27;19942;-68
2023/02/17 02:08:56;;;;;;;;;;;;;;;;;;5139524;27;20497;-68
2023/02/17 02:11:22;;;;;;;;;;;;;;;;;;5138184;27;19995;-68
2023/02/17 02:13:48;;;;;;;;;;;;;;;;;;5138816;27;20440;-68
2023/02/17 02:16:14;;;;;;;;;;;;;;;;;;5138774;27;19956;-68
2023/02/17 02:18:40;;;;;;;;;;;;;;;;;;5138503;27;20325;-68
2023/02/17 02:21:05;;;;;;;;;;;;;;;;;;5138443;27;19942;-68
2023/02/17 02:23:31;;;;;;;;;;;;;;;;;;5138345;27;19974;-68
2023/02/17 02:25:57;;;;;;;;;;;;;;;;;;5138640;27;19949;-68
2023/02/17 02:28:23;;;;;;;;;;;;;;;;;;5138222;27;20309;-68
2023/02/17 02:30:49;;;;;;;;;;;;;;;;;;5138230;27;20059;-68
2023/02/17 02:33:15;;;;;;;;;;;;;;;;;;5138203;27;20362;-68
2023/02/17 02:35:41;;;;;;;;;;;;;;;;;;5138163;27;19959;-68
2023/02/17 02:38:07;;;;;;;;;;;;;;;;;;5138410;27;19949;-68
2023/02/17 02:40:32;;;;;;;;;;;;;;;;;;5138041;27;19946;-68
2023/02/17 02:42:58;;;;;;;;;;;;;;;;;;5137963;27;20018;-68
2023/02/17 02:45:24;;;;;;;;;;;;;;;;;;5138516;27;20403;-68
2023/02/17 02:47:50;;;;;;;;;;;;;;;;;;5137924;27;20034;-68
2023/02/17 02:50:16;;;;;;;;;;;;;;;;;;5138150;27;20044;-68
2023/02/17 02:52:42;;;;;;;;;;;;;;;;;;5137713;27;20488;-68
2023/02/17 02:55:08;;;;;;;;;;;;;;;;;;5137746;27;19993;-68
2023/02/17 02:57:34;;;;;;;;;;;;;;;;;;5119269;27;20341;-68
2023/02/17 03:00:00;;;;;;;;;;;;;;;;;;5137696;27;19950;-68
2023/02/17 03:02:26;;;;;;;;;;;;;;;;;;5137793;27;19976;-68
2023/02/17 03:04:52;;;;;;;;;;;;;;;;;;5138056;27;19946;-68
2023/02/17 03:07:21;;;;;;;;;;;;;;;;;;5137808;27;20105;-68
2023/02/17 03:09:47;;;;;;;;;;;;;;;;;;5137305;27;19986;-68
2023/02/17 03:12:12;;;;;;;;;;;;;;;;;;5137749;27;19953;-68
2023/02/17 03:14:40;;;;;;;;;;;;;;;;;;5136525;27;20214;-68
2023/02/17 03:17:06;;;;;;;;;;;;;;;;;;5137344;27;19957;-68
2023/02/17 03:19:32;;;;;;;;;;;;;;;;;;5137878;27;20290;-68
2023/02/17 03:21:58;;;;;;;;;;;;;;;;;;5137182;27;20022;-68
2023/02/17 03:24:24;;;;;;;;;;;;;;;;;;5137500;27;19942;-68
2023/02/17 03:26:49;;;;;;;;;;;;;;;;;;5137413;27;19952;-67
2023/02/17 03:29:16;;;;;;;;;;;;;;;;;;5137088;27;19957;-68
2023/02/17 03:31:42;;;;;;;;;;;;;;;;;;5137688;27;19946;-68
2023/02/17 03:34:08;;;;;;;;;;;;;;;;;;5137055;27;19949;-68
2023/02/17 03:36:34;;;;;;;;;;;;;;;;;;5136899;27;20310;-68
2023/02/17 03:39:00;;;;;;;;;;;;;;;;;;5137230;27;19995;-68
2023/02/17 03:41:26;;;;;;;;;;;;;;;;;;5136909;27;20058;-68
2023/02/17 03:43:52;;;;;;;;;;;;;;;;;;5136787;27;19975;-68
2023/02/17 03:46:18;;;;;;;;;;;;;;;;;;5136820;27;20479;-68
2023/02/17 03:48:43;;;;;;;;;;;;;;;;;;5137064;27;19953;-67
2023/02/17 03:51:10;;;;;;;;;;;;;;;;;;5136710;27;20351;-68
2023/02/17 03:53:35;;;;;;;;;;;;;;;;;;5136630;27;19949;-68
2023/02/17 03:56:01;;;;;;;;;;;;;;;;;;5136589;27;19955;-68
2023/02/17 03:58:27;;;;;;;;;;;;;;;;;;5136556;27;19948;-67
2023/02/17 04:00:53;;;;;;;;;;;;;;;;;;5136834;27;19948;-68
2023/02/17 04:03:19;;;;;;;;;;;;;;;;;;5136380;27;20310;-67
2023/02/17 04:05:45;;;;;;;;;;;;;;;;;;5136432;27;19957;-68
2023/02/17 04:08:11;;;;;;;;;;;;;;;;;;5136379;27;19961;-68
2023/02/17 04:10:37;;;;;;;;;;;;;;;;;;5136109;27;19979;-68
2023/02/17 04:13:02;;;;;;;;;;;;;;;;;;5136457;27;20036;-68
2023/02/17 04:15:28;;;;;;;;;;;;;;;;;;5136776;27;19952;-68
2023/02/17 04:17:54;;;;;;;;;;;;;;;;;;5135620;27;19945;-68
2023/02/17 04:20:20;;;;;;;;;;;;;;;;;;5136397;27;19989;-67
2023/02/17 04:22:46;;;;;;;;;;;;;;;;;;5136028;27;20380;-68
2023/02/17 04:25:12;;;;;;;;;;;;;;;;;;5136055;27;19973;-68
2023/02/17 04:27:38;;;;;;;;;;;;;;;;;;5136561;27;19947;-68
2023/02/17 04:30:04;;;;;;;;;;;;;;;;;;5135910;27;20040;-68
2023/02/17 04:32:30;;;;;;;;;;;;;;;;;;5136445;27;19950;-68
2023/02/17 04:34:56;;;;;;;;;;;;;;;;;;5135858;27;19956;-67
2023/02/17 04:37:22;;;;;;;;;;;;;;;;;;5136076;27;19952;-68
2023/02/17 04:39:48;;;;;;;;;;;;;;;;;;5136042;27;19953;-68
2023/02/17 04:42:14;;;;;;;;;;;;;;;;;;5116990;27;19971;-68
2023/02/17 04:44:40;;;;;;;;;;;;;;;;;;5135859;27;19954;-68
2023/02/17 04:47:06;;;;;;;;;;;;;;;;;;5135594;27;19955;-68
2023/02/17 04:49:32;;;;;;;;;;;;;;;;;;5135828;27;19990;-68
2023/02/17 04:51:58;;;;;;;;;;;;;;;;;;5116921;27;19954;-68
2023/02/17 04:54:24;;;;;;;;;;;;;;;;;;5135493;27;20051;-68
2023/02/17 04:56:50;;;;;;;;;;;;;;;;;;5135692;27;19948;-68
2023/02/17 04:59:16;;;;;;;;;;;;;;;;;;5135642;27;20326;-68
2023/02/17 05:01:41;;;;;;;;;;;;;;;;;;5135268;27;19953;-67
2023/02/17 05:04:07;;;;;;;;;;;;;;;;;;5135507;27;19956;-68
2023/02/17 05:06:33;;;;;;;;;;;;;;;;;;5135241;27;19956;-68
2023/02/17 05:08:59;;;;;;;;;;;;;;;;;;5136268;27;19953;-67
2023/02/17 05:11:25;;;;;;;;;;;;;;;;;;5134726;27;20358;-68
2023/02/17 05:13:51;;;;;;;;;;;;;;;;;;5135373;27;19969;-68
2023/02/17 05:16:17;;;;;;;;;;;;;;;;;;5135307;27;19983;-68
2023/02/17 05:18:43;;;;;;;;;;;;;;;;;;5135924;27;19946;-68
2023/02/17 05:21:09;;;;;;;;;;;;;;;;;;5135071;27;19940;-68
2023/02/17 05:23:39;;;;;;;;;;;;;;;;;;5135485;27;20518;-68
2023/02/17 05:26:05;;;;;;;;;;;;;;;;;;5134906;27;19948;-68
2023/02/17 05:28:31;;;;;;;;;;;;;;;;;;5134402;27;20409;-68
2023/02/17 05:30:57;;;;;;;;;;;;;;;;;;5134825;27;19957;-68
2023/02/17 05:33:23;;;;;;;;;;;;;;;;;;5134793;27;20416;-68
2023/02/17 05:35:49;;;;;;;;;;;;;;;;;;5134847;27;20043;-68
2023/02/17 05:38:15;;;;;;;;;;;;;;;;;;5135349;27;20267;-68
2023/02/17 05:40:41;;;;;;;;;;;;;;;;;;5134807;27;19945;-68
2023/02/17 05:43:07;;;;;;;;;;;;;;;;;;5134925;27;20067;-67
2023/02/17 05:45:32;;;;;;;;;;;;;;;;;;5135040;28;19949;-68
2023/02/17 05:47:58;;;;;;;;;;;;;;;;;;5134984;28;19939;-68
2023/02/17 05:50:24;;;;;;;;;;;;;;;;;;5135501;28;20439;-68
2023/02/17 05:52:50;;;;;;;;;;;;;;;;;;5134634;28;19949;-68
2023/02/17 05:55:16;;;;;;;;;;;;;;;;;;5134644;28;20397;-68
2023/02/17 05:57:42;;;;;;;;;;;;;;;;;;5134564;28;19949;-69
2023/02/17 06:00:08;;;;;;;;;;;;;;;;;;5135152;28;20296;-67
2023/02/17 06:02:34;;;;;;;;;;;;;;;;;;5134463;28;19968;-68
2023/02/17 06:04:59;;;;;;;;;;;;;;;;;;5134534;28;20004;-69
2023/02/17 06:07:25;;;;;;;;;;;;;;;;;;5134448;28;20481;-68
2023/02/17 06:09:51;;;;;;;;;;;;;;;;;;5134265;28;19991;-68
2023/02/17 06:12:17;;;;;;;;;;;;;;;;;;5135065;28;20335;-67
2023/02/17 06:14:43;;;;;;;;;;;;;;;;;;5134592;28;19976;-68
2023/02/17 06:17:09;;;;;;;;;;;;;;;;;;5134406;28;19995;-68
2023/02/17 06:19:36;;;;;;;;;;;;;;;;;;5134952;28;19987;-68
2023/02/17 06:22:02;;;;;;;;;;;;;;;;;;5115642;28;19999;-68
2023/02/17 06:24:28;;;;;;;;;;;;;;;;;;5134926;28;20432;-68
2023/02/17 06:26:53;;;;;;;;;;;;;;;;;;5134316;28;20033;-67
2023/02/17 06:29:19;;;;;;;;;;;;;;;;;;5134314;28;19953;-68
2023/02/17 06:31:45;;;;;;;;;;;;;;;;;;5134837;28;19994;-67
2023/02/17 06:34:11;;;;;;;;;;;;;;;;;;5134514;28;19955;-68
2023/02/17 06:36:37;;;;;;;;;;;;;;;;;;5134823;28;20404;-68
2023/02/17 06:39:03;;;;;;;;;;;;;;;;;;5134184;28;19947;-67
2023/02/17 06:41:29;;;;;;;;;;;;;;;;;;5137028;27;19959;-68
2023/02/17 06:43:55;;;;;;;;;;;;;;;;;;5138785;27;20028;-68
2023/02/17 06:46:21;;;;;;;;;;;;;;;;;;5137997;27;19949;-68
2023/02/17 06:48:47;;;;;;;;;;;;;;;;;;5138172;27;20429;-68
2023/02/17 06:51:12;;;;;;;;;;;;;;;;;;5138422;27;19944;-68
2023/02/17 06:53:38;;;;;;;;;;;;;;;;;;5137859;27;19956;-68
2023/02/17 06:56:04;;;;;;;;;;;;;;;;;;5137827;27;20402;-68
2023/02/17 06:58:31;;;;;;;;;;;;;;;;;;5137737;27;19947;-68
2023/02/17 07:00:57;;;;;;;;;;;;;;;;;;5137983;27;19948;-68
2023/02/17 07:03:23;;;;;;;;;;;;;;;;;;5137864;27;19970;-67
2023/02/17 07:05:49;;;;;;;;;;;;;;;;;;5138163;27;19971;-67
2023/02/17 07:08:15;;;;;;;;;;;;;;;;;;5137598;27;19989;-68
2023/02/17 07:10:41;;;;;;;;;;;;;;;;;;5137400;27;19999;-68
2023/02/17 07:13:07;;;;;;;;;;;;;;;;;;5137621;27;19952;-68
2023/02/17 07:15:32;;;;;;;;;;;;;;;;;;5137992;27;20470;-67
2023/02/17 07:17:58;;;;;;;;;;;;;;;;;;5137345;27;19949;-67
2023/02/17 07:20:24;;;;;;;;;;;;;;;;;;5137585;27;19944;-67
2023/02/17 07:22:50;;;;;;;;;;;;;;;;;;5137219;27;20422;-69
2023/02/17 07:25:16;;;;;;;;;;;;;;;;;;5137234;27;19948;-68
2023/02/17 07:27:42;;;;;;;;;;;;;;;;;;5137115;27;19954;-68
2023/02/17 07:30:08;;;;;;;;;;;;;;;;;;5137698;27;19951;-68
2023/02/17 07:32:34;;;;;;;;;;;;;;;;;;5137407;27;19956;-68
2023/02/17 07:35:00;;;;;;;;;;;;;;;;;;5137045;27;19998;-68
2023/02/17 07:37:26;;;;;;;;;;;;;;;;;;5136999;27;19952;-68
2023/02/17 07:39:52;;;;;;;;;;;;;;;;;;5137195;27;19957;-68
2023/02/17 07:42:18;;;;;;;;;;;;;;;;;;5137141;27;20008;-68
2023/02/17 07:44:43;;;;;;;;;;;;;;;;;;5137188;27;19998;-68
2023/02/17 07:47:09;;;;;;;;;;;;;;;;;;5136869;27;20395;-68
2023/02/17 07:49:36;;;;;;;;;;;;;;;;;;5136791;27;19945;-68
2023/02/17 07:52:02;;;;;;;;;;;;;;;;;;5117141;27;19958;-68
2023/02/17 07:54:28;;;;;;;;;;;;;;;;;;5136713;27;19994;-68
2023/02/17 07:56:54;;;;;;;;;;;;;;;;;;5136874;27;20364;-67
2023/02/17 07:59:20;;;;;;;;;;;;;;;;;;5137149;27;19949;-68
2023/02/17 08:01:46;;;;;;;;;;;;;;;;;;5117804;27;20039;-68
2023/02/17 08:04:11;;;;;;;;;;;;;;;;;;5136498;27;20296;-67
2023/02/17 08:06:38;;;;;;;;;;;;;;;;;;5136442;27;19991;-68
2023/02/17 08:14:33;;;;;;;;;;;;;;;;;;5136782;27;20073;-67
2023/02/17 08:16:59;;;;;;;;;;;;;;;;;;5136504;27;19993;-67
2023/02/17 08:19:25;;;;;;;;;;;;;;;;;;5136152;27;20364;-68
2023/02/17 08:21:51;;;;;;;;;;;;;;;;;;5135973;27;20000;-67
2023/02/17 08:24:18;;;;;;;;;;;;;;;;;;5136351;27;19985;-67
2023/02/17 08:26:44;;;;;;;;;;;;;;;;;;5135982;27;19992;-67
2023/02/17 08:29:11;;;;;;;;;;;;;;;;;;5136303;27;20394;-68
2023/02/17 08:31:37;;;;;;;;;;;;;;;;;;5136289;27;20000;-68
2023/02/17 08:34:03;;;;;;;;;;;;;;;;;;5136118;27;20323;-67
2023/02/17 08:36:29;;;;;;;;;;;;;;;;;;5136157;27;19956;-68
2023/02/17 08:38:55;;;;;;;;;;;;;;;;;;5136375;27;19945;-68
2023/02/17 08:41:21;;;;;;;;;;;;;;;;;;5135716;27;20003;-67
2023/02/17 08:43:46;;;;;;;;;;;;;;;;;;5135616;27;20051;-68
2023/02/17 08:46:13;;;;;;;;;;;;;;;;;;5136158;27;19950;-67
2023/02/17 08:48:39;;;;;;;;;;;;;;;;;;5135830;27;19992;-68
2023/02/17 08:51:05;;;;;;;;;;;;;;;;;;5135551;27;19942;-67
2023/02/17 08:53:30;;;;;;;;;;;;;;;;;;5135504;27;19941;-68
2023/02/17 08:55:56;;;;;;;;;;;;;;;;;;5135709;27;19995;-69
2023/02/17 08:58:22;;;;;;;;;;;;;;;;;;5135383;27;19957;-69
2023/02/17 09:00:48;;;;;;;;;;;;;;;;;;5135392;27;20399;-68
2023/02/17 09:03:14;;;;;;;;;;;;;;;;;;5135081;27;20064;-68
2023/02/17 09:05:40;;;;;;;;;;;;;;;;;;5135826;27;20408;-67
2023/02/17 09:08:06;;;;;;;;;;;;;;;;;;5135218;27;19944;-69
2023/02/17 09:10:32;;;;;;;;;;;;;;;;;;5135008;27;19996;-68
2023/02/17 09:12:57;;;;;;;;;;;;;;;;;;5135067;27;19944;-69
2023/02/17 09:15:23;;;;;;;;;;;;;;;;;;5135134;27;19946;-70
2023/02/17 09:17:49;;;;;;;;;;;;;;;;;;5135368;27;19998;-67
2023/02/17 09:20:17;;;;;;;;;;;;;;;;;;5135347;27;20020;-69
2023/02/17 09:22:44;;;;;;;;;;;;;;;;;;5134957;27;19961;-69
2023/02/17 09:25:09;;;;;;;;;;;;;;;;;;5135578;27;20396;-68
2023/02/17 09:27:35;;;;;;;;;;;;;;;;;;5135264;27;19947;-68
2023/02/17 09:30:01;;;;;;;;;;;;;;;;;;5135232;27;20459;-68
2023/02/17 09:32:27;;;;;;;;;;;;;;;;;;5134879;27;19950;-68
2023/02/17 09:34:53;;;;;;;;;;;;;;;;;;5134893;27;19942;-68
2023/02/17 09:37:19;;;;;;;;;;;;;;;;;;5135392;27;20412;-68
2023/02/17 09:39:46;;;;;;;;;;;;;;;;;;5135091;27;19947;-69
2023/02/17 09:42:12;;;;;;;;;;;;;;;;;;5135339;27;19977;-69
2023/02/17 09:44:38;;;;;;;;;;;;;;;;;;5134754;27;19949;-68
2023/02/17 09:47:04;;;;;;;;;;;;;;;;;;5135003;27;20464;-68
2023/02/17 09:49:30;;;;;;;;;;;;;;;;;;5134991;28;20314;-68
2023/02/17 09:51:56;;;;;;;;;;;;;;;;;;5115734;28;19954;-68
2023/02/17 09:54:21;;;;;;;;;;;;;;;;;;5134820;28;19952;-68
2023/02/17 09:56:47;;;;;;;;;;;;;;;;;;5134622;28;20364;-68
2023/02/17 09:59:13;;;;;;;;;;;;;;;;;;5134621;28;19954;-68
2023/02/17 10:01:39;;;;;;;;;;;;;;;;;;5135164;28;20370;-68
2023/02/17 10:04:05;;;;;;;;;;;;;;;;;;5134741;28;20026;-68
2023/02/17 10:06:31;;;;;;;;;;;;;;;;;;5134548;28;20338;-68
2023/02/17 10:08:57;;;;;;;;;;;;;;;;;;5134810;28;19956;-67
2023/02/17 10:11:23;;;;;;;;;;;;;;;;;;5115627;28;19989;-69
2023/02/17 10:13:49;;;;;;;;;;;;;;;;;;5134408;28;19958;-64
2023/02/17 10:16:15;;;;;;;;;;;;;;;;;;5137387;27;19957;-65
2023/02/17 10:18:42;;;;;;;;;;;;;;;;;;5138572;27;19998;-64
2023/02/17 10:21:07;;;;;;;;;;;;;;;;;;5119928;27;19954;-64
2023/02/17 10:23:33;;;;;;;;;;;;;;;;;;5138375;27;19973;-64
2023/02/17 10:25:59;;;;;;;;;;;;;;;;;;5138982;27;19951;-64
2023/02/17 10:28:25;;;;;;;;;;;;;;;;;;5138619;27;20322;-63
2023/02/17 10:30:51;;;;;;;;;;;;;;;;;;5138882;27;19961;-64
2023/02/17 10:33:17;;;;;;;;;;;;;;;;;;5138248;27;19989;-64
2023/02/17 10:35:43;;;;;;;;;;;;;;;;;;5138688;27;19949;-71
2023/02/17 10:38:09;;;;;;;;;;;;;;;;;;5138126;27;19952;-67
2023/02/17 10:40:35;;;;;;;;;;;;;;;;;;5138146;27;19950;-67
2023/02/17 10:43:01;;;;;;;;;;;;;;;;;;5138237;27;19973;-67
2023/02/17 10:45:27;;;;;;;;;;;;;;;;;;5137988;27;19954;-67
2023/02/17 10:47:52;;;;;;;;;;;;;;;;;;5138240;27;19953;-67
2023/02/17 10:50:18;;;;;;;;;;;;;;;;;;5138479;27;20385;-67
2023/02/17 10:52:44;;;;;;;;;;;;;;;;;;5137909;27;19959;-66
2023/02/17 10:55:10;;;;;;;;;;;;;;;;;;5137812;27;19949;-67
2023/02/17 10:57:36;;;;;;;;;;;;;;;;;;5137788;27;19947;-67
2023/02/17 11:00:03;;;;;;;;;;;;;;;;;;5137758;27;19955;-67
2023/02/17 11:02:29;;;;;;;;;;;;;;;;;;5137566;27;19980;-67
2023/02/17 11:04:55;;;;;;;;;;;;;;;;;;5138174;27;19943;-67
2023/02/17 11:07:21;;;;;;;;;;;;;;;;;;5137646;27;19944;-67
2023/02/17 11:09:47;;;;;;;;;;;;;;;;;;5137206;27;20353;-67
2023/02/17 11:12:13;;;;;;;;;;;;;;;;;;5137874;27;19965;-66
2023/02/17 11:14:39;;;;;;;;;;;;;;;;;;5137459;27;19959;-67
2023/02/17 11:17:04;;;;;;;;;;;;;;;;;;5137430;27;19951;-67
2023/02/17 11:19:34;;;;;;;;;;;;;;;;;;5137948;27;19977;-67
2023/02/17 11:22:00;;;;;;;;;;;;;;;;;;5137638;27;20033;-67
2023/02/17 11:24:26;;;;;;;;;;;;;;;;;;5137275;27;19951;-67
2023/02/17 11:26:52;;;;;;;;;;;;;;;;;;5135859;27;19989;-66
2023/02/17 11:29:18;;;;;;;;;;;;;;;;;;5137486;27;19959;-67
2023/02/17 11:31:44;;;;;;;;;;;;;;;;;;5137423;27;19949;-67
2023/02/17 11:34:10;;;;;;;;;;;;;;;;;;5137680;27;19999;-67
2023/02/17 11:36:36;;;;;;;;;;;;;;;;;;5137311;27;19949;-67
2023/02/17 11:39:02;;;;;;;;;;;;;;;;;;5137321;27;19962;-67
2023/02/17 11:41:28;;;;;;;;;;;;;;;;;;5136955;27;20393;-66
2023/02/17 11:43:54;;;;;;;;;;;;;;;;;;5137133;27;19965;-67
2023/02/17 11:46:20;;;;;;;;;;;;;;;;;;5137148;27;20431;-67
2023/02/17 11:48:46;;;;;;;;;;;;;;;;;;5137867;27;20408;-66
2023/02/17 11:51:12;;;;;;;;;;;;;;;;;;5136798;27;19952;-66
2023/02/17 11:53:37;;;;;;;;;;;;;;;;;;5137301;27;20031;-67
2023/02/17 11:56:05;;;;;;;;;;;;;;;;;;5136695;27;19982;-67
2023/02/17 11:58:30;;;;;;;;;;;;;;;;;;5136619;27;20490;-66
2023/02/17 12:00:56;;;;;;;;;;;;;;;;;;5137142;27;19985;-66
2023/02/17 12:03:22;;;;;;;;;;;;;;;;;;5136490;27;19971;-66
2023/02/17 12:05:48;;;;;;;;;;;;;;;;;;5136746;27;19961;-67
2023/02/17 12:08:14;;;;;;;;;;;;;;;;;;5137045;27;19992;-67
2023/02/17 12:10:40;;;;;;;;;;;;;;;;;;5136281;27;19988;-66
2023/02/17 12:13:06;;;;;;;;;;;;;;;;;;5136784;27;20417;-66
2023/02/17 12:15:32;;;;;;;;;;;;;;;;;;5136285;27;19964;-67
2023/02/17 12:17:58;;;;;;;;;;;;;;;;;;5136827;27;20375;-67
2023/02/17 12:20:24;;;;;;;;;;;;;;;;;;5136190;27;19955;-67
2023/02/17 12:22:49;;;;;;;;;;;;;;;;;;5136033;27;20071;-67
2023/02/17 12:25:15;;;;;;;;;;;;;;;;;;5136096;27;19954;-67
2023/02/17 12:27:41;;;;;;;;;;;;;;;;;;5136294;27;19948;-67
2023/02/17 12:30:07;;;;;;;;;;;;;;;;;;5135968;27;19991;-67
2023/02/17 12:32:33;;;;;;;;;;;;;;;;;;5136185;27;19949;-67
2023/02/17 12:35:00;;;;;;;;;;;;;;;;;;5135822;27;19982;-67
2023/02/17 12:37:26;;;;;;;;;;;;;;;;;;5135842;27;20002;-66
2023/02/17 12:39:51;;;;;;;;;;;;;;;;;;5135326;27;19993;-68
2023/02/17 12:42:17;;;;;;;;;;;;;;;;;;5135630;27;19969;-67
2023/02/17 12:44:43;;;;;;;;;;;;;;;;;;5135650;27;19959;-66
2023/02/17 12:47:09;;;;;;;;;;;;;;;;;;5135645;27;19944;-66
2023/02/17 12:49:35;;;;;;;;;;;;;;;;;;5135841;27;19949;-66
2023/02/17 12:52:01;;;;;;;;;;;;;;;;;;5136173;27;19946;-67
2023/02/17 12:54:27;;;;;;;;;;;;;;;;;;5135478;27;20317;-66
2023/02/17 12:56:53;;;;;;;;;;;;;;;;;;5136038;27;19950;-66
2023/02/17 12:59:20;;;;;;;;;;;;;;;;;;5135432;27;20015;-67
2023/02/17 13:01:46;;;;;;;;;;;;;;;;;;5136020;27;19979;-67
2023/02/17 13:04:12;;;;;;;;;;;;;;;;;;5135575;27;20009;-67
2023/02/17 13:06:38;;;;;;;;;;;;;;;;;;5135362;27;20030;-66
2023/02/17 13:09:04;;;;;;;;;;;;;;;;;;5135540;27;19950;-66
2023/02/17 13:11:30;;;;;;;;;;;;;;;;;;5134826;27;19993;-67
2023/02/17 13:13:56;;;;;;;;;;;;;;;;;;5135404;27;19966;-67
2023/02/17 13:16:22;;;;;;;;;;;;;;;;;;5135458;27;20032;-67
2023/02/17 13:18:48;;;;;;;;;;;;;;;;;;5135373;27;20388;-66
2023/02/17 13:21:14;;;;;;;;;;;;;;;;;;5135071;27;19957;-66
2023/02/17 13:23:40;;;;;;;;;;;;;;;;;;5134961;27;19969;-67
2023/02/17 13:26:06;;;;;;;;;;;;;;;;;;5135029;27;20081;-67
2023/02/17 13:28:33;;;;;;;;;;;;;;;;;;5134999;27;19949;-67
2023/02/17 13:30:58;;;;;;;;;;;;;;;;;;5134885;27;20494;-67
2023/02/17 13:33:24;;;;;;;;;;;;;;;;;;5134936;27;19954;-68
2023/02/17 13:35:50;;;;;;;;;;;;;;;;;;5135108;27;20035;-67
2023/02/17 13:38:16;;;;;;;;;;;;;;;;;;5134791;27;19947;-67
2023/02/17 13:40:42;;;;;;;;;;;;;;;;;;5135084;27;19958;-67
2023/02/17 13:43:08;;;;;;;;;;;;;;;;;;5134563;27;20453;-66
2023/02/17 13:45:34;;;;;;;;;;;;;;;;;;5135034;27;19954;-67
2023/02/17 13:48:00;;;;;;;;;;;;;;;;;;5134740;28;19949;-67
2023/02/17 13:50:27;;;;;;;;;;;;;;;;;;5134672;27;19956;-66
2023/02/17 13:52:53;;;;;;;;;;;;;;;;;;5134565;28;19953;-66
2023/02/17 13:55:19;;;;;;;;;;;;;;;;;;5134640;28;19998;-66
2023/02/17 13:57:44;;;;;;;;;;;;;;;;;;5134674;28;19952;-66
2023/02/17 14:00:10;;;;;;;;;;;;;;;;;;5134621;28;19950;-66
2023/02/17 14:02:36;;;;;;;;;;;;;;;;;;5134778;28;19976;-66
2023/02/17 14:05:02;;;;;;;;;;;;;;;;;;5134553;28;19955;-67
2023/02/17 14:07:28;;;;;;;;;;;;;;;;;;5134804;28;20064;-67
2023/02/17 14:09:54;;;;;;;;;;;;;;;;;;5134521;28;20015;-67
2023/02/17 14:12:21;;;;;;;;;;;;;;;;;;5134509;28;19989;-67
2023/02/17 14:14:46;;;;;;;;;;;;;;;;;;5134676;28;20362;-66
2023/02/17 14:17:12;;;;;;;;;;;;;;;;;;5134944;28;19950;-66
2023/02/17 14:19:38;;;;;;;;;;;;;;;;;;5134402;28;19999;-67
2023/02/17 14:22:04;;;;;;;;;;;;;;;;;;5134251;28;20418;-66
2023/02/17 14:24:30;;;;;;;;;;;;;;;;;;5134338;28;19982;-67
2023/02/17 14:26:56;;;;;;;;;;;;;;;;;;5134578;28;19956;-67
2023/02/17 14:29:22;;;;;;;;;;;;;;;;;;5134821;28;20049;-67
2023/02/17 14:31:48;;;;;;;;;;;;;;;;;;5134588;28;19987;-67
2023/02/17 14:34:14;;;;;;;;;;;;;;;;;;5134832;28;19949;-67
2023/02/17 14:36:40;;;;;;;;;;;;;;;;;;5134202;28;20062;-67
2023/02/17 14:39:05;;;;;;;;;;;;;;;;;;5134244;28;19950;-67
2023/02/17 14:41:31;;;;;;;;;;;;;;;;;;5134205;28;19950;-67
2023/02/17 14:43:58;;;;;;;;;;;;;;;;;;5134067;28;19968;-67
2023/02/17 14:46:24;;;;;;;;;;;;;;;;;;5134135;28;19949;-67
2023/02/17 14:48:50;;;;;;;;;;;;;;;;;;5134120;28;19958;-66
2023/02/17 14:51:16;;;;;;;;;;;;;;;;;;5134172;28;19994;-67
2023/02/17 14:53:42;;;;;;;;;;;;;;;;;;5134371;28;19952;-67
2023/02/17 14:56:08;;;;;;;;;;;;;;;;;;5134089;28;19945;-67
2023/02/17 14:58:34;;;;;;;;;;;;;;;;;;5134680;28;20404;-66
2023/02/17 15:01:00;;;;;;;;;;;;;;;;;;5134213;27;19958;-68
2023/02/17 15:03:25;;;;;;;;;;;;;;;;;;5137687;27;19978;-67
2023/02/17 15:05:51;;;;;;;;;;;;;;;;;;5137891;27;19951;-66
2023/02/17 15:08:17;;;;;;;;;;;;;;;;;;5137526;27;20290;-66
2023/02/17 15:10:43;;;;;;;;;;;;;;;;;;5137615;27;19986;-66
2023/02/17 15:13:09;;;;;;;;;;;;;;;;;;5137498;27;19957;-67
2023/02/17 15:15:38;;;;;;;;;;;;;;;;;;5137749;27;19953;-67
2023/02/17 15:18:03;;;;;;;;;;;;;;;;;;5137421;27;19950;-66
2023/02/17 15:20:29;;;;;;;;;;;;;;;;;;5137383;27;20327;-67
2023/02/17 15:22:55;;;;;;;;;;;;;;;;;;5137271;27;19970;-67
2023/02/17 15:25:21;;;;;;;;;;;;;;;;;;5137566;27;19949;-67
2023/02/17 15:27:47;;;;;;;;;;;;;;;;;;5137254;27;19957;-66
2023/02/17 15:30:13;;;;;;;;;;;;;;;;;;5137217;27;20068;-67
2023/02/17 15:32:39;;;;;;;;;;;;;;;;;;5137200;27;20352;-67
2023/02/17 15:35:05;;;;;;;;;;;;;;;;;;5137136;27;19998;-67
2023/02/17 15:37:31;;;;;;;;;;;;;;;;;;5137301;27;20003;-67
2023/02/17 15:39:56;;;;;;;;;;;;;;;;;;5137044;27;19943;-67
2023/02/17 15:42:24;;;;;;;;;;;;;;;;;;5136908;27;20385;-67
2023/02/17 15:44:51;;;;;;;;;;;;;;;;;;5136904;27;19951;-67
2023/02/17 15:47:17;;;;;;;;;;;;;;;;;;5137165;27;20041;-66
2023/02/17 15:49:43;;;;;;;;;;;;;;;;;;5136855;27;19988;-67
2023/02/17 15:52:11;;;;;;;;;;;;;;;;;;5136815;27;19944;-67
2023/02/17 15:54:37;;;;;;;;;;;;;;;;;;5137003;27;20318;-67
2023/02/17 15:57:03;;;;;;;;;;;;;;;;;;5136705;27;19951;-67
2023/02/17 15:59:29;;;;;;;;;;;;;;;;;;5136920;27;19951;-66
2023/02/17 16:01:55;;;;;;;;;;;;;;;;;;5136578;27;20011;-67
2023/02/17 16:04:20;;;;;;;;;;;;;;;;;;5137083;27;20062;-66
2023/02/17 16:06:46;;;;;;;;;;;;;;;;;;5136486;27;19994;-66
2023/02/17 16:09:12;;;;;;;;;;;;;;;;;;5136407;27;19950;-66
2023/02/17 16:11:38;;;;;;;;;;;;;;;;;;5136196;27;20043;-67
2023/02/17 16:14:04;;;;;;;;;;;;;;;;;;5136012;27;20362;-67
2023/02/17 16:16:33;;;;;;;;;;;;;;;;;;5136586;27;19944;-66
2023/02/17 16:18:59;;;;;;;;;;;;;;;;;;5136258;27;19958;-67
2023/02/17 16:21:25;;;;;;;;;;;;;;;;;;5136486;27;19944;-66
2023/02/17 16:23:54;;;;;;;;;;;;;;;;;;5135999;27;20024;-67
2023/02/17 16:26:20;;;;;;;;;;;;;;;;;;5136092;27;19952;-66
2023/02/17 16:28:46;;;;;;;;;;;;;;;;;;5136044;27;20365;-67
2023/02/17 16:31:12;;;;;;;;;;;;;;;;;;5135996;27;19960;-66
2023/02/17 16:33:38;;;;;;;;;;;;;;;;;;5135930;27;19988;-67
2023/02/17 16:36:04;;;;;;;;;;;;;;;;;;5136188;27;19951;-66
2023/02/17 16:38:33;;;;;;;;;;;;;;;;;;5135860;27;19949;-66
2023/02/17 16:40:59;;;;;;;;;;;;;;;;;;5136042;27;19960;-66